• Join FlightAware (Why Join?)
  • Login
  • US Flag 
01:18PM EDT


 

Airport Tracker/Info


-or-


 

Live Flight TrackerFlight Track Log ✈ VOZ187 ✈ 19-Apr-2013 ✈ NZAA / AKL - YBBN / BNE

Flight Track Log - Related Links

Times and Time Zones

All times are in EDT time to prevent confusion due to time zone crossing. See the VOZ187 flight status page for this flight to view local times or setup timezone preferences in your user account.

Time Position Orientation Groundspeed Altitude Reporting Facility
EDT Latitude Longitude Course Direction KTS MPH feet Rate Location/Type
02:56PM -37.0220 174.7530 250° West 173 199 400  Level FlightAware
02:59PM -36.9780 174.5190 283° West 320 368 6,600 2,220 Climbing FlightAware
02:59PM -36.9610 174.4750 296° West 328 377 7,800 180 Climbing FlightAware
03:02PM -36.8447 174.1792 296° West  Level FlightAware Approximate
03:03PM -36.7953 174.0544 296° West  Level FlightAware Approximate
03:04PM -36.7458 173.9299 296° West  Level FlightAware Approximate
03:05PM -36.6962 173.8055 296° West  Level FlightAware Approximate
03:06PM -36.6464 173.6812 296° West  Level FlightAware Approximate
03:07PM -36.5965 173.5571 297° West  Level FlightAware Approximate
03:08PM -36.5465 173.4332 297° West  Level FlightAware Approximate
03:09PM -36.4963 173.3095 297° West  Level FlightAware Approximate
03:10PM -36.4461 173.1859 297° West  Level FlightAware Approximate
03:11PM -36.3957 173.0624 297° West  Level FlightAware Approximate
03:12PM -36.3451 172.9391 297° West  Level FlightAware Approximate
03:13PM -36.2945 172.8160 297° West  Level FlightAware Approximate
03:14PM -36.2437 172.6931 297° West  Level FlightAware Approximate
03:15PM -36.1928 172.5703 297° West  Level FlightAware Approximate
03:16PM -36.1418 172.4476 297° West  Level FlightAware Approximate
03:17PM -36.0906 172.3251 297° West  Level FlightAware Approximate
03:18PM -36.0393 172.2028 297° West  Level FlightAware Approximate
03:19PM -35.9879 172.0807 297° West  Level FlightAware Approximate
03:20PM -35.9364 171.9587 298° West  Level FlightAware Approximate
03:21PM -35.8847 171.8368 298° West  Level FlightAware Approximate
03:22PM -35.8330 171.7151 298° West  Level FlightAware Approximate
03:23PM -35.7811 171.5936 298° West  Level FlightAware Approximate
03:24PM -35.7290 171.4722 298° West  Level FlightAware Approximate
03:25PM -35.6769 171.3510 298° West  Level FlightAware Approximate
03:26PM -35.6246 171.2300 298° West  Level FlightAware Approximate
03:27PM -35.5723 171.1091 298° West  Level FlightAware Approximate
03:28PM -35.5254 170.9846 294° West  Level FlightAware Approximate
03:29PM -35.4794 170.8600 294° West  Level FlightAware Approximate
03:30PM -35.4333 170.7356 294° West  Level FlightAware Approximate
03:31PM -35.3870 170.6113 295° West  Level FlightAware Approximate
03:32PM -35.3406 170.4871 295° West  Level FlightAware Approximate
03:33PM -35.2941 170.3630 295° West  Level FlightAware Approximate
03:34PM -35.2475 170.2391 295° West  Level FlightAware Approximate
03:35PM -35.2007 170.1154 295° West  Level FlightAware Approximate
03:36PM -35.1538 169.9918 295° West  Level FlightAware Approximate
03:37PM -35.1068 169.8683 295° West  Level FlightAware Approximate
03:38PM -35.0597 169.7450 295° West  Level FlightAware Approximate
03:39PM -35.0124 169.6218 295° West  Level FlightAware Approximate
03:40PM -34.9650 169.4988 295° West  Level FlightAware Approximate
03:41PM -34.9175 169.3759 295° West  Level FlightAware Approximate
03:42PM -34.8699 169.2531 295° West  Level FlightAware Approximate
03:43PM -34.8221 169.1305 295° West  Level FlightAware Approximate
03:44PM -34.7742 169.0080 295° West  Level FlightAware Approximate
03:45PM -34.7262 168.8857 295° West  Level FlightAware Approximate
03:46PM -34.6781 168.7635 296° West  Level FlightAware Approximate
03:47PM -34.6298 168.6415 296° West  Level FlightAware Approximate
03:48PM -34.5815 168.5196 296° West  Level FlightAware Approximate
03:49PM -34.5330 168.3978 296° West  Level FlightAware Approximate
03:50PM -34.4843 168.2762 296° West  Level FlightAware Approximate
03:51PM -34.4356 168.1547 296° West  Level FlightAware Approximate
03:52PM -34.3867 168.0334 296° West  Level FlightAware Approximate
03:53PM -34.3378 167.9122 296° West  Level FlightAware Approximate
03:54PM -34.2887 167.7912 296° West  Level FlightAware Approximate
03:55PM -34.2395 167.6703 296° West  Level FlightAware Approximate
03:56PM -34.1901 167.5495 296° West  Level FlightAware Approximate
03:57PM -34.1407 167.4289 296° West  Level FlightAware Approximate
03:58PM -34.0911 167.3084 296° West  Level FlightAware Approximate
03:59PM -34.0414 167.1880 296° West  Level FlightAware Approximate
04:00PM -33.9916 167.0678 297° West  Level FlightAware Approximate
04:01PM -33.9417 166.9478 297° West  Level FlightAware Approximate
04:02PM -33.8917 166.8279 297° West  Level FlightAware Approximate
04:03PM -33.8415 166.7081 297° West  Level FlightAware Approximate
04:04PM -33.7912 166.5884 297° West  Level FlightAware Approximate
04:05PM -33.7409 166.4689 297° West  Level FlightAware Approximate
04:06PM -33.6904 166.3496 297° West  Level FlightAware Approximate
04:07PM -33.6398 166.2304 297° West  Level FlightAware Approximate
04:08PM -33.5890 166.1113 297° West  Level FlightAware Approximate
04:09PM -33.5382 165.9923 297° West  Level FlightAware Approximate
04:10PM -33.4872 165.8735 297° West  Level FlightAware Approximate
04:11PM -33.4362 165.7549 297° West  Level FlightAware Approximate
04:12PM -33.3850 165.6364 297° West  Level FlightAware Approximate
04:13PM -33.3337 165.5180 297° West  Level FlightAware Approximate
04:14PM -33.2823 165.3997 297° West  Level FlightAware Approximate
04:15PM -33.2308 165.2816 298° West  Level FlightAware Approximate
04:16PM -33.1791 165.1637 298° West  Level FlightAware Approximate
04:17PM -33.1274 165.0459 298° West  Level FlightAware Approximate
04:18PM -33.0756 164.9282 298° West  Level FlightAware Approximate
04:19PM -33.0236 164.8106 298° West  Level FlightAware Approximate
04:20PM -32.9715 164.6932 298° West  Level FlightAware Approximate
04:21PM -32.9193 164.5760 298° West  Level FlightAware Approximate
04:22PM -32.8671 164.4588 298° West  Level FlightAware Approximate
04:23PM -32.8147 164.3418 298° West  Level FlightAware Approximate
04:24PM -32.7621 164.2250 298° West  Level FlightAware Approximate
04:25PM -32.7095 164.1083 298° West  Level FlightAware Approximate
04:26PM -32.6568 163.9917 298° West  Level FlightAware Approximate
04:27PM -32.6040 163.8753 298° West  Level FlightAware Approximate
04:28PM -32.5510 163.7590 298° West  Level FlightAware Approximate
04:29PM -32.4980 163.6428 298° West  Level FlightAware Approximate
04:30PM -32.4449 163.5268 298° West  Level FlightAware Approximate
04:31PM -32.3916 163.4109 299° West  Level FlightAware Approximate
04:32PM -32.3382 163.2951 299° West  Level FlightAware Approximate
04:33PM -32.2848 163.1795 299° West  Level FlightAware Approximate
04:34PM -32.2312 163.0640 299° West  Level FlightAware Approximate
04:35PM -32.1775 162.9487 299° West  Level FlightAware Approximate
04:36PM -32.1237 162.8335 299° West  Level FlightAware Approximate
04:37PM -32.0698 162.7185 299° West  Level FlightAware Approximate
04:38PM -32.0157 162.6036 299° West  Level FlightAware Approximate
04:39PM -31.9616 162.4888 299° West  Level FlightAware Approximate
04:40PM -31.9074 162.3741 299° West  Level FlightAware Approximate
04:41PM -31.8531 162.2596 299° West  Level FlightAware Approximate
04:42PM -31.7986 162.1453 299° West  Level FlightAware Approximate
04:43PM -31.7441 162.0310 299° West  Level FlightAware Approximate
04:44PM -31.6894 161.9169 299° West  Level FlightAware Approximate
04:45PM -31.6347 161.8029 299° West  Level FlightAware Approximate
04:46PM -31.5798 161.6891 299° West  Level FlightAware Approximate
04:47PM -31.5249 161.5754 300° West  Level FlightAware Approximate
04:48PM -31.4699 161.4618 300° West  Level FlightAware Approximate
04:49PM -31.4147 161.3484 300° West  Level FlightAware Approximate
04:50PM -31.3595 161.2351 300° West  Level FlightAware Approximate
04:51PM -31.3041 161.1219 300° West  Level FlightAware Approximate
04:52PM -31.2487 161.0089 300° West  Level FlightAware Approximate
04:53PM -31.1932 160.8960 300° West  Level FlightAware Approximate
04:54PM -31.1375 160.7832 300° West  Level FlightAware Approximate
04:55PM -31.0818 160.6706 300° West  Level FlightAware Approximate
04:56PM -31.0260 160.5581 300° West  Level FlightAware Approximate
04:57PM -30.9700 160.4457 300° West  Level FlightAware Approximate
04:58PM -30.9140 160.3335 300° West  Level FlightAware Approximate
04:59PM -30.8579 160.2213 300° West  Level FlightAware Approximate
05:00PM -30.8016 160.1094 300° West  Level FlightAware Approximate
05:01PM -30.7453 159.9975 300° West  Level FlightAware Approximate
05:02PM -30.6889 159.8858 300° West  Level FlightAware Approximate
05:03PM -30.6324 159.7742 300° West  Level FlightAware Approximate
05:04PM -30.5758 159.6627 301° West  Level FlightAware Approximate
05:05PM -30.5191 159.5514 301° West  Level FlightAware Approximate
05:06PM -30.4623 159.4402 301° West  Level FlightAware Approximate
05:07PM -30.4054 159.3291 301° West  Level FlightAware Approximate
05:08PM -30.3484 159.2182 301° West  Level FlightAware Approximate
05:09PM -30.2913 159.1074 301° West  Level FlightAware Approximate
05:10PM -30.2342 158.9967 301° West  Level FlightAware Approximate
05:11PM -30.1769 158.8862 301° West  Level FlightAware Approximate
05:12PM -30.1196 158.7757 301° West  Level FlightAware Approximate
05:13PM -30.0621 158.6655 301° West  Level FlightAware Approximate
05:14PM -30.0046 158.5553 301° West  Level FlightAware Approximate
05:15PM -29.9469 158.4452 301° West  Level FlightAware Approximate
05:16PM -29.8892 158.3353 301° West  Level FlightAware Approximate
05:17PM -29.8314 158.2256 301° West  Level FlightAware Approximate
05:18PM -29.7735 158.1159 301° West  Level FlightAware Approximate
05:19PM -29.7155 158.0064 301° West  Level FlightAware Approximate
05:20PM -29.6574 157.8970 301° West  Level FlightAware Approximate
05:21PM -29.5993 157.7877 301° West  Level FlightAware Approximate
05:22PM -29.5410 157.6785 302° West  Level FlightAware Approximate
05:23PM -29.4827 157.5695 302° West  Level FlightAware Approximate
05:24PM -29.4242 157.4606 302° West  Level FlightAware Approximate
05:25PM -29.3657 157.3519 302° West  Level FlightAware Approximate
05:26PM -29.3071 157.2432 302° West  Level FlightAware Approximate
05:27PM -29.2484 157.1347 302° West  Level FlightAware Approximate
05:27PM -29.6690 157.9286 302° West 367 422 35,900  Level Aus ATC (RADAR)
05:27PM -29.6780 157.9350 302° West 376 433 36,000 120 Climbing FlightAware
05:28PM -29.6450 157.8720 301° West 376 433 36,000 -120 Level FlightAware
05:28PM -29.6098 157.8173 301° West 365 420 35,900  Descending Aus ATC (RADAR)
05:28PM -29.6030 157.7940 301° West 377 434 36,000 60 Climbing FlightAware
05:29PM -29.5730 157.7360 301° West 377 434 36,000 -120 Level FlightAware
05:30PM -29.5305 157.6637 301° West 360 414 35,900  Descending Aus ATC (RADAR)
05:30PM -29.5420 157.6770 301° West 377 434 36,000  Climbing FlightAware
05:30PM -29.4989 157.6046 301° West 360 414 35,900  Descending Aus ATC (RADAR)
05:30PM -29.5120 157.6190 301° West 377 434 36,000 60 Climbing FlightAware
05:31PM -29.4420 157.4930 303° West 374 430 36,000 -120 Level FlightAware
05:32PM -29.4227 157.4607 303° West 359 413 35,900  Descending Aus ATC (RADAR)
05:32PM -29.4050 157.4220 303° West 374 430 36,000  Climbing FlightAware
05:32PM -29.3773 157.3767 303° West 360 414 35,900  Descending Aus ATC (RADAR)
05:33PM -29.3740 157.3650 303° West 374 430 36,000  Climbing FlightAware
05:33PM -29.3216 157.2760 303° West 362 417 35,900  Descending Aus ATC (RADAR)
05:33PM -29.3440 157.3070 303° West 374 430 36,000 120 Climbing FlightAware
05:34PM -29.2903 157.2176 303° West 361 415 36,000  Level Aus ATC (RADAR)
05:34PM -29.3140 157.2490 303° West 374 430 36,000  Level FlightAware
05:35PM -29.2520 157.1420 304° West 372 428 36,000  Level FlightAware
05:36PM -29.2160 157.0730 301° West 372 428 36,000  Level FlightAware
05:36PM -29.1899 157.0235 301° West 361 415 36,000  Level Aus ATC (RADAR)
05:36PM -29.1860 157.0160 301° West 372 428 36,000  Level FlightAware
05:37PM -29.1494 156.9484 301° West 359 413 36,000  Level Aus ATC (RADAR)
05:37PM -29.1560 156.9580 301° West 372 428 36,000  Level FlightAware
05:38PM -29.1180 156.8870 301° West 372 428 36,000  Level FlightAware
05:38PM -29.0614 156.7889 301° West 363 418 36,000  Level Aus ATC (RADAR)
05:38PM -29.0560 156.7810 301° West 375 432 36,000  Level FlightAware
05:39PM -29.0154 156.7052 301° West 362 417 36,000  Level Aus ATC (RADAR)
05:39PM -29.0120 156.6970 301° West 371 427 36,000  Level FlightAware
05:40PM -28.9736 156.6295 301° West 364 419 36,000  Level Aus ATC (RADAR)
05:40PM -28.9830 156.6400 301° West 371 427 36,000  Level FlightAware
05:41PM -28.9540 156.5820 300° West 371 427 36,000  Level FlightAware
05:41PM -28.8904 156.4794 300° West 362 417 36,000  Level Aus ATC (RADAR)
05:41PM -28.9250 156.5240 300° West 371 427 36,000  Level FlightAware
05:42PM -28.8560 156.4170 306° West 370 426 36,000  Level FlightAware
05:43PM -28.8230 156.3560 302° West 370 426 36,000  Level FlightAware
05:43PM -28.7922 156.3002 302° West 344 396 36,000  Level Aus ATC (RADAR)
05:43PM -28.7920 156.3000 302° West 370 426 36,000  Level FlightAware
05:44PM -28.7619 156.2469 302° West 334 384 36,000  Level Aus ATC (RADAR)
05:44PM -28.7530 156.2300 302° West 370 426 36,000  Level FlightAware
05:45PM -28.7122 156.1552 302° West 331 381 36,000  Level Aus ATC (RADAR)
05:45PM -28.7010 156.1360 302° West 338 389 36,000  Level FlightAware
05:46PM -28.6500 156.0430 302° West 339 390 36,000  Level FlightAware
05:47PM -28.6183 155.9874 302° West 335 386 36,000  Level Aus ATC (RADAR)
05:47PM -28.6058 155.9643 301° West 335 386 36,000  Level Aus ATC (RADAR)
05:47PM -28.5758 155.9108 303° West 335 386 36,000  Level Aus ATC (RADAR)
05:48PM -28.5590 155.8820 303° West 341 392 36,000  Level FlightAware
05:48PM -28.5249 155.8189 303° West 335 386 36,000  Level Aus ATC (RADAR)
05:49PM -28.5210 155.8110 303° West 342 394 36,000  Level FlightAware
05:49PM -28.4941 155.7650 303° West 339 390 36,000  Level Aus ATC (RADAR)
05:50PM -28.4650 155.7140 303° West 345 397 36,000  Level FlightAware
05:50PM -28.4420 155.6726 303° West 341 392 36,000  Level Aus ATC (RADAR)
05:50PM -28.4320 155.6550 303° West 345 397 36,000  Level FlightAware
05:51PM -28.3990 155.5910 300° West 345 397 36,000  Level FlightAware
05:52PM -28.3597 155.5259 300° West 339 390 36,000  Level Aus ATC (RADAR)
05:52PM -28.3710 155.5390 300° West 345 397 36,000  Level FlightAware
05:52PM -28.3430 155.4860 301° West 345 397 36,000  Level FlightAware
05:53PM -28.3150 155.4330 301° West 345 397 36,000  Level FlightAware
05:54PM -28.2603 155.3495 301° West 337 388 36,000  Level Aus ATC (RADAR)
05:54PM -28.2800 155.3670 301° West 345 397 36,000  Level FlightAware
05:55PM -28.1826 155.2136 301° West 333 383 36,000  Level Aus ATC (RADAR)
05:55PM -28.1750 155.2000 301° West 338 389 36,000  Level FlightAware
05:56PM -28.1533 155.1609 301° West 332 382 36,000  Level Aus ATC (RADAR)
05:56PM -28.1410 155.1390 301° West 337 388 36,000  Level FlightAware
05:57PM -28.1150 155.0900 301° West 337 388 36,000  Level FlightAware
05:57PM -28.0848 155.0408 301° West 331 381 36,000  Level Aus ATC (RADAR)
05:57PM -28.0660 155.0080 301° West 335 386 36,000 -1,080 Level FlightAware
05:58PM -28.0320 154.9480 303° West 333 383 34,800 -2,280 Descending FlightAware
05:59PM -28.0048 154.9007 303° West 332 382 33,500 -2,280 Descending Aus ATC (RADAR)
05:59PM -27.9940 154.8810 303° West 334 384 33,100 -1,920 Descending FlightAware
05:59PM -27.9754 154.8498 303° West 328 377 32,400 -1,740 Descending Aus ATC (RADAR)
05:59PM -27.9660 154.8330 303° West 328 377 32,100 -1,320 Descending FlightAware
06:00PM -27.9422 154.7923 303° West 323 372 31,300 -1,920 Descending Aus ATC (RADAR)
06:00PM -27.9260 154.7640 303° West 320 368 30,700 -1,380 Descending FlightAware
06:01PM -27.9183 154.7498 303° West 317 365 30,400 -1,740 Descending Aus ATC (RADAR)
06:01PM -27.8990 154.7160 303° West 331 381 29,700 -2,400 Descending FlightAware
06:02PM -27.8590 154.6460 303° West 331 381 28,200 -1,560 Descending FlightAware
06:02PM -27.8515 154.6336 303° West 328 377 28,000 -2,040 Descending Aus ATC (RADAR)
06:02PM -27.8269 154.5910 303° West 321 369 27,100 -2,580 Descending Aus ATC (RADAR)
06:02PM -27.8210 154.5790 303° West 323 372 26,800 -1,080 Descending FlightAware
06:03PM -27.8104 154.5628 303° West 319 367 26,500 -1,800 Descending Aus ATC (RADAR)
06:03PM -27.7750 154.5000 303° West 308 354 25,200 -2,220 Descending FlightAware
06:04PM -27.7511 154.4598 303° West 306 352 24,300 -1,680 Descending Aus ATC (RADAR)
06:04PM -27.7330 154.4280 303° West 303 349 23,700 -1,620 Descending FlightAware
06:05PM -27.7010 154.3720 303° West 304 350 22,500 -1,680 Descending FlightAware
06:05PM -27.6720 154.3220 303° West 303 349 21,500 -1,800 Descending FlightAware
06:06PM -27.6506 154.2859 303° West 302 348 20,700 -1,920 Descending Aus ATC (RADAR)
06:06PM -27.6350 154.2580 303° West 301 346 20,100 -1,560 Descending FlightAware
06:07PM -27.5940 154.1880 303° West 295 339 18,700 -1,560 Descending FlightAware
06:08PM -27.5620 154.1320 303° West 291 335 17,500 -840 Descending FlightAware
06:09PM -27.5456 154.1051 304° West 290 334 16,900 -1,020 Descending Aus ATC (RADAR)
06:10PM -27.5462 154.1051 304° West  Level FlightAware Approximate
06:11PM -27.5023 153.9546 288° West 290 334 14,100  Level Aus ATC (RADAR)
06:13PM -27.4809 153.8248 280° West 273 314 11,900 -1,560 Descending Aus ATC (RADAR)
06:15PM -27.4547 153.6665 281° West 258 297 9,100 -1,740 Descending Aus ATC (RADAR)
06:16PM -27.4044 153.4400 284° West 227 261 5,700 -1,560 Descending Aus ATC (RADAR)
06:18PM -27.3734 153.3508 291° West 226 260 4,400 -1,020 Descending Aus ATC (RADAR)
06:19PM -27.3430 153.2640 291° West 190 219 2,900 -1,020 Descending FlightAware
06:20PM -27.3298 153.2237 291° West 175 201 2,200 -840 Descending Aus ATC (RADAR)
06:22PM -27.3373 153.1563 263° West 143 165 900 -780 Descending Aus ATC (RADAR)